AA1OV-2 Weather Reports


time (UTC)temp
C
wind
direction
speed
KPH
gust
KPH
rain 1hr
cm
rain 24hr
cm
rain mn
cm
humidity
%
barometer
mb
20200531081215 22 230 3.2 6.4 0.00 0.00 0.00 35 1015.6
20200531080229 22 200 3.2 4.8 0.00 0.00 0.00 35 1015.6
20200531075218 22 217 1.6 3.2 0.00 0.00 0.00 34 1015.8
20200531074227 22 148 0.0 0.0 0.00 0.00 0.00 35 1015.8
20200531073218 23 139 0.0 1.6 0.00 0.00 0.00 34 1015.8
20200531072226 23 190 0.0 0.0 0.00 0.00 0.00 34 1015.7
20200531071219 23 201 0.0 1.6 0.00 0.00 0.00 34 1015.8
20200531070229 23 200 0.0 3.2 0.00 0.00 0.00 33 1015.6
20200531065218 23 214 1.6 6.4 0.00 0.00 0.00 34 1015.6
20200531064227 23 243 0.0 6.4 0.00 0.00 0.00 34 1015.6
20200531063217 23 190 3.2 6.4 0.00 0.00 0.00 33 1015.8
20200531062225 23 196 4.8 8.0 0.00 0.00 0.00 33 1015.8
20200531061218 23 262 0.0 6.4 0.00 0.00 0.00 34 1015.8
20200531060227 23 191 1.6 3.2 0.00 0.00 0.00 34 1015.9
20200531055216 23 233 0.0 3.2 0.00 0.00 0.00 35 1015.9
20200531054224 23 226 0.0 3.2 0.00 0.00 0.00 35 1015.9
20200531053215 23 163 3.2 4.8 0.00 0.00 0.00 35 1015.8
20200531052228 23 72 1.6 3.2 0.00 0.00 0.00 35 1015.7
20200531051217 25 162 1.6 3.2 0.00 0.00 0.00 33 1015.6
20200531050227 25 285 0.0 3.2 0.00 0.00 0.00 33 1015.6
20200531045216 25 265 0.0 4.8 0.00 0.00 0.00 32 1015.5
20200531044225 25 262 3.2 9.7 0.00 0.00 0.00 32 1015.3
20200531043219 25 266 8.0 14.5 0.00 0.00 0.00 32 1015.3
20200531042228 26 293 8.0 16.1 0.00 0.00 0.00 32 1015.2
20200531041217 26 288 6.4 19.3 0.00 0.00 0.00 31 1015.2
20200531040226 26 266 12.9 25.7 0.00 0.00 0.00 31 1014.9
20200531035214 26 270 12.9 30.6 0.00 0.00 0.00 31 1014.8
20200531034226 27 258 9.7 20.9 0.00 0.00 0.00 27 1014.8
20200531033217 27 276 14.5 30.6 0.00 0.00 0.00 27 1014.8
20200531032225 28 292 16.1 27.4 0.00 0.00 0.00 26 1014.9
20200531031214 28 259 14.5 27.4 0.00 0.00 0.00 25 1015.0
20200531030223 28 255 14.5 29.0 0.00 0.00 0.00 25 1015.0
20200531025215 28 230 24.1 37.0 0.00 0.00 0.00 24 1015.0
20200531024224 28 272 19.3 33.8 0.00 0.00 0.00 24 1014.7
20200531023233 29 255 19.3 33.8 0.00 0.00 0.00 23 1014.5
20200531022220 29 283 14.5 27.4 0.00 0.00 0.00 22 1014.4
20200531021229 30 256 16.1 24.1 0.00 0.00 0.00 21 1014.3
20200531020218 30 291 6.4 16.1 0.00 0.00 0.00 21 1014.1
20200531015230 29 250 9.7 17.7 0.00 0.00 0.00 22 1013.9
20200531014219 29 283 9.7 16.1 0.00 0.00 0.00 23 1013.8
20200531013228 29 269 8.0 16.1 0.00 0.00 0.00 24 1013.5
20200531012216 29 297 9.7 16.1 0.00 0.00 0.00 24 1013.4
20200531011225 29 292 8.0 20.9 0.00 0.00 0.00 24 1013.3
20200531010220 29 285 12.9 25.7 0.00 0.00 0.00 23 1013.3
20200531005230 30 250 12.9 25.7 0.00 0.00 0.00 23 1013.4
20200531004220 30 266 17.7 29.0 0.00 0.00 0.00 22 1013.5
20200531003229 30 277 17.7 29.0 0.00 0.00 0.00 20 1013.4
20200531002217 31 236 16.1 27.4 0.00 0.00 0.00 19 1013.6
20200531001230 31 314 14.5 24.1 0.00 0.00 0.00 19 1013.5
20200531000218 31 281 12.9 22.5 0.00 0.00 0.00 19 1013.5
20200530235227 31 264 16.1 29.0 0.00 0.00 0.00 19 1013.6
20200530234216 32 264 16.1 30.6 0.00 0.00 0.00 19 1013.7
20200530233225 33 297 8.0 19.3 0.00 0.00 0.00 20 1013.7
20200530232217 34 307 9.7 20.9 0.00 0.05 0.00 19 1013.9
20200530231227 34 174 4.8 12.9 0.00 0.05 0.00 15 1013.9
20200530230218 34 215 8.0 16.1 0.00 0.05 0.00 15 1014.1
20200530225224 34 204 6.4 17.7 0.00 0.05 0.00 15 1014.1
20200530224214 34 162 3.2 12.9 0.00 0.05 0.00 15 1014.1
20200530223224 35 227 6.4 14.5 0.00 0.05 0.00 15 1014.1
20200530222216 35 132 4.8 14.5 0.00 0.05 0.00 14 1014.1
20200530221223 35 195 9.7 19.3 0.00 0.05 0.00 15 1014.1
20200530220213 35 162 6.4 20.9 0.00 0.05 0.00 14 1014.2
20200530215222 35 158 8.0 14.5 0.00 0.05 0.00 14 1014.4
20200530214212 35 198 9.7 16.1 0.00 0.05 0.00 14 1014.6
20200530213226 35 163 3.2 17.7 0.00 0.05 0.00 15 1014.7
20200530212215 35 103 6.4 22.5 0.00 0.05 0.00 15 1014.9
20200530211225 35 155 12.9 22.5 0.00 0.05 0.00 14 1015.0
20200530210215 35 139 8.0 22.5 0.00 0.05 0.00 14 1015.1
20200530205224 35 163 12.9 24.1 0.00 0.05 0.00 14 1015.3
20200530204218 35 129 9.7 22.5 0.00 0.05 0.00 14 1015.3
20200530203227 35 165 11.3 25.7 0.00 0.05 0.00 14 1015.6
20200530202217 35 142 6.4 20.9 0.00 0.05 0.00 14 1015.5
20200530201226 34 134 17.7 35.4 0.00 0.05 0.00 14 1015.6
20200530200217 35 75 16.1 30.6 0.00 0.05 0.00 14 1015.8
20200530195230 35 129 11.3 37.0 0.00 0.05 0.00 14 1016.1
20200530194219 34 93 9.7 27.4 0.00 0.05 0.00 14 1016.0
20200530193230 35 131 12.9 29.0 0.00 0.05 0.00 14 1016.4
20200530192218 35 113 16.1 29.0 0.00 0.05 0.00 14 1016.3
20200530191228 34 151 16.1 30.6 0.00 0.05 0.00 13 1016.5
20200530190224 34 176 6.4 19.3 0.00 0.05 0.00 15 1016.7
20200530185232 34 158 9.7 24.1 0.00 0.05 0.00 16 1017.0
20200530184303 34 124 9.7 20.9 0.00 0.05 0.00 15 1017.0
20200530183230 34 165 11.3 22.5 0.00 0.05 0.00 16 1017.1
20200530182219 34 167 6.4 16.1 0.00 0.05 0.00 17 1017.3
20200530181229 33 84 16.1 24.1 0.00 0.05 0.00 18 1017.4
20200530180223 33 150 6.4 22.5 0.00 0.05 0.00 18 1017.5
20200530175233 33 138 12.9 20.9 0.00 0.05 0.00 19 1017.7
20200530174222 33 135 9.7 19.3 0.00 0.05 0.00 17 1017.7
20200530173232 33 150 11.3 20.9 0.00 0.05 0.00 18 1017.9
20200530172223 32 153 12.9 19.3 0.00 0.05 0.00 19 1017.9
20200530171217 32 149 9.7 22.5 0.00 0.05 0.00 20 1018.0
20200530170226 32 153 9.7 19.3 0.00 0.05 0.00 21 1018.0
20200530165215 32 159 12.9 22.5 0.00 0.05 0.00 20 1018.0
20200530164225 31 146 9.7 19.3 0.00 0.05 0.00 22 1018.0
20200530163216 31 125 8.0 17.7 0.00 0.05 0.00 23 1018.1
20200530162224 30 120 11.3 22.5 0.00 0.05 0.00 23 1018.1
20200530161218 30 148 12.9 19.3 0.00 0.05 0.00 24 1018.2
20200530160227 30 137 11.3 19.3 0.00 0.05 0.00 24 1018.2
20200530155217 30 137 11.3 19.3 0.00 0.05 0.00 25 1018.3
20200530154226 28 151 8.0 19.3 0.00 0.05 0.00 27 1018.3
20200530153218 28 146 9.7 24.1 0.00 0.05 0.00 27 1018.3
20200530152230 28 155 9.7 19.3 0.00 0.05 0.00 28 1018.4
20200530151219 28 103 6.4 12.9 0.00 0.05 0.00 33 1018.3
20200530150229 27 139 8.0 12.9 0.00 0.05 0.00 31 1018.3
20200530145218 26 123 3.2 9.7 0.00 0.05 0.00 37 1018.3
20200530144228 26 65 3.2 8.0 0.00 0.05 0.00 37 1018.2
20200530143222 25 63 3.2 8.0 0.00 0.05 0.00 38 1018.1
20200530142231 25 101 4.8 6.4 0.00 0.05 0.00 39 1018.1
20200530141220 25 72 0.0 4.8 0.00 0.05 0.00 40 1018.0
20200530140231 24 342 0.0 0.0 0.00 0.05 0.00 43 1018.0
20200530135221 24 342 0.0 3.2 0.00 0.05 0.00 42 1018.0
20200530134215 25 13 0.0 3.2 0.00 0.05 0.00 39 1017.9
20200530133224 25 138 0.0 0.0 0.00 0.05 0.00 41 1017.8
20200530132215 25 141 0.0 0.0 0.00 0.05 0.00 40 1017.7
20200530131224 25 166 0.0 1.6 0.00 0.05 0.00 37 1017.7
20200530130216 23 220 0.0 1.6 0.00 0.05 0.00 38 1017.6
20200530125229 22 208 1.6 3.2 0.00 0.05 0.00 41 1017.6
20200530124218 22 197 1.6 4.8 0.00 0.05 0.00 40 1017.6
20200530123228 22 212 4.8 6.4 0.00 0.05 0.00 42 1017.6
20200530122218 22 195 3.2 6.4 0.00 0.05 0.00 40 1017.5
20200530121228 21 167 6.4 8.0 0.00 0.05 0.00 41 1017.5
20200530120222 21 175 4.8 8.0 0.00 0.05 0.00 42 1017.3
20200530115232 21 209 3.2 6.4 0.00 0.05 0.00 42 1017.1
20200530114222 21 217 3.2 6.4 0.00 0.05 0.00 42 1017.3
20200530113232 22 209 3.2 4.8 0.00 0.05 0.00 41 1017.1
20200530112222 22 181 1.6 6.4 0.00 0.05 0.00 40 1017.2
20200530111217 22 163 4.8 8.0 0.00 0.05 0.00 40 1017.2
20200530110225 22 187 3.2 4.8 0.00 0.05 0.00 42 1017.3
20200530105234 21 166 1.6 8.0 0.00 0.05 0.00 43 1017.3
20200530104222 21 184 4.8 6.4 0.00 0.05 0.00 44 1017.4
20200530103232 21 166 4.8 6.4 0.00 0.05 0.00 45 1017.4
20200530102223 21 162 1.6 3.2 0.00 0.05 0.00 44 1017.4
20200530101217 21 86 1.6 4.8 0.00 0.05 0.00 44 1017.4
20200530100227 21 178 3.2 4.8 0.00 0.05 0.00 43 1017.5
20200530095217 21 221 0.0 1.6 0.00 0.05 0.00 44 1017.5
20200530094227 21 89 0.0 0.0 0.00 0.05 0.00 43 1017.5
20200530093217 21 171 0.0 0.0 0.00 0.05 0.00 46 1017.6
20200530092231 22 172 0.0 3.2 0.00 0.05 0.00 42 1017.4
20200530091220 22 207 0.0 1.6 0.00 0.05 0.00 43 1017.4
20200530090230 22 206 0.0 0.0 0.00 0.05 0.00 43 1017.4
20200530085220 22 240 0.0 0.0 0.00 0.05 0.00 44 1017.6
20200530084230 23 162 0.0 4.8 0.00 0.05 0.00 41 1017.7
20200530083224 23 157 1.6 3.2 0.00 0.05 0.00 40 1017.7
20200530082233 23 146 1.6 4.8 0.00 0.05 0.00 39 1017.9